sensor_id;sensor_type;location;lat;lon;timestamp;P1;durP1;ratioP1;P2;durP2;ratioP2
31638;SDS011;18248;51.522;7.020;2023-09-08T00:01:14;9.50;;;6.18;;
31638;SDS011;18248;51.522;7.020;2023-09-08T00:04:12;20.48;;;8.88;;
31638;SDS011;18248;51.522;7.020;2023-09-08T00:07:12;15.73;;;8.13;;
31638;SDS011;18248;51.522;7.020;2023-09-08T00:10:11;15.05;;;8.70;;
31638;SDS011;18248;51.522;7.020;2023-09-08T00:13:10;17.63;;;7.35;;
31638;SDS011;18248;51.522;7.020;2023-09-08T00:16:08;13.95;;;6.30;;
31638;SDS011;18248;51.522;7.020;2023-09-08T00:19:08;10.27;;;7.22;;
31638;SDS011;18248;51.522;7.020;2023-09-08T00:22:07;14.55;;;8.75;;
31638;SDS011;18248;51.522;7.020;2023-09-08T00:25:06;14.25;;;9.60;;
31638;SDS011;18248;51.522;7.020;2023-09-08T00:28:05;9.38;;;6.45;;
31638;SDS011;18248;51.522;7.020;2023-09-08T00:31:04;13.70;;;7.68;;
31638;SDS011;18248;51.522;7.020;2023-09-08T00:34:03;14.82;;;7.53;;
31638;SDS011;18248;51.522;7.020;2023-09-08T00:37:01;14.65;;;8.57;;
31638;SDS011;18248;51.522;7.020;2023-09-08T00:40:05;8.80;;;6.18;;
31638;SDS011;18248;51.522;7.020;2023-09-08T00:43:06;15.35;;;7.10;;
31638;SDS011;18248;51.522;7.020;2023-09-08T00:46:04;14.95;;;8.32;;
31638;SDS011;18248;51.522;7.020;2023-09-08T00:49:04;16.23;;;8.55;;
31638;SDS011;18248;51.522;7.020;2023-09-08T00:52:04;14.07;;;7.13;;
31638;SDS011;18248;51.522;7.020;2023-09-08T00:55:03;12.70;;;6.20;;
31638;SDS011;18248;51.522;7.020;2023-09-08T00:58:02;9.25;;;6.05;;
31638;SDS011;18248;51.522;7.020;2023-09-08T01:01:01;19.30;;;7.57;;
31638;SDS011;18248;51.522;7.020;2023-09-08T01:04:00;10.27;;;7.03;;
31638;SDS011;18248;51.522;7.020;2023-09-08T01:06:58;18.58;;;8.10;;
31638;SDS011;18248;51.522;7.020;2023-09-08T01:09:58;10.15;;;7.85;;
31638;SDS011;18248;51.522;7.020;2023-09-08T01:13:02;13.20;;;7.22;;
31638;SDS011;18248;51.522;7.020;2023-09-08T01:16:01;9.10;;;6.60;;
31638;SDS011;18248;51.522;7.020;2023-09-08T01:19:00;20.55;;;10.07;;
31638;SDS011;18248;51.522;7.020;2023-09-08T01:25:23;15.00;;;7.97;;
31638;SDS011;18248;51.522;7.020;2023-09-08T01:28:23;13.65;;;8.43;;
31638;SDS011;18248;51.522;7.020;2023-09-08T01:31:23;11.70;;;6.70;;
31638;SDS011;18248;51.522;7.020;2023-09-08T01:34:22;20.83;;;7.95;;
31638;SDS011;18248;51.522;7.020;2023-09-08T01:37:24;13.50;;;7.53;;
31638;SDS011;18248;51.522;7.020;2023-09-08T01:40:22;13.45;;;7.35;;
31638;SDS011;18248;51.522;7.020;2023-09-08T01:43:21;12.48;;;6.88;;
31638;SDS011;18248;51.522;7.020;2023-09-08T01:46:20;8.70;;;6.15;;
31638;SDS011;18248;51.522;7.020;2023-09-08T01:49:18;11.07;;;6.95;;
31638;SDS011;18248;51.522;7.020;2023-09-08T01:52:17;15.18;;;8.50;;
31638;SDS011;18248;51.522;7.020;2023-09-08T01:55:15;16.98;;;6.47;;
31638;SDS011;18248;51.522;7.020;2023-09-08T01:58:17;15.30;;;8.23;;
31638;SDS011;18248;51.522;7.020;2023-09-08T02:01:15;16.67;;;9.45;;
31638;SDS011;18248;51.522;7.020;2023-09-08T02:04:14;14.50;;;8.57;;
31638;SDS011;18248;51.522;7.020;2023-09-08T02:07:12;20.35;;;8.82;;
31638;SDS011;18248;51.522;7.020;2023-09-08T02:10:11;11.07;;;7.50;;
31638;SDS011;18248;51.522;7.020;2023-09-08T02:13:10;11.18;;;6.78;;
31638;SDS011;18248;51.522;7.020;2023-09-08T02:16:15;19.15;;;8.75;;
31638;SDS011;18248;51.522;7.020;2023-09-08T02:19:14;11.98;;;7.40;;
31638;SDS011;18248;51.522;7.020;2023-09-08T02:22:12;12.05;;;6.53;;
31638;SDS011;18248;51.522;7.020;2023-09-08T02:25:12;9.57;;;6.93;;
31638;SDS011;18248;51.522;7.020;2023-09-08T02:28:11;16.80;;;7.45;;
31638;SDS011;18248;51.522;7.020;2023-09-08T02:31:10;14.18;;;6.93;;
31638;SDS011;18248;51.522;7.020;2023-09-08T02:34:09;11.38;;;6.90;;
31638;SDS011;18248;51.522;7.020;2023-09-08T02:37:09;12.25;;;7.28;;
31638;SDS011;18248;51.522;7.020;2023-09-08T02:40:07;17.80;;;8.70;;
31638;SDS011;18248;51.522;7.020;2023-09-08T02:43:06;14.23;;;6.88;;
31638;SDS011;18248;51.522;7.020;2023-09-08T02:46:05;11.77;;;7.28;;
31638;SDS011;18248;51.522;7.020;2023-09-08T02:49:03;13.25;;;8.70;;
31638;SDS011;18248;51.522;7.020;2023-09-08T02:52:02;11.20;;;7.50;;
31638;SDS011;18248;51.522;7.020;2023-09-08T02:55:00;10.45;;;6.63;;
31638;SDS011;18248;51.522;7.020;2023-09-08T02:57:59;11.07;;;6.70;;
31638;SDS011;18248;51.522;7.020;2023-09-08T03:00:57;14.73;;;9.43;;
31638;SDS011;18248;51.522;7.020;2023-09-08T03:04:06;11.45;;;7.75;;
31638;SDS011;18248;51.522;7.020;2023-09-08T03:07:05;17.85;;;8.68;;
31638;SDS011;18248;51.522;7.020;2023-09-08T03:10:03;10.75;;;6.93;;
31638;SDS011;18248;51.522;7.020;2023-09-08T03:13:03;15.05;;;8.80;;
31638;SDS011;18248;51.522;7.020;2023-09-08T03:16:05;16.70;;;7.45;;
31638;SDS011;18248;51.522;7.020;2023-09-08T03:19:05;10.02;;;7.00;;
31638;SDS011;18248;51.522;7.020;2023-09-08T03:22:03;10.90;;;6.80;;
31638;SDS011;18248;51.522;7.020;2023-09-08T03:25:02;9.50;;;6.68;;
31638;SDS011;18248;51.522;7.020;2023-09-08T03:28:01;11.05;;;6.72;;
31638;SDS011;18248;51.522;7.020;2023-09-08T03:31:01;11.77;;;6.80;;
31638;SDS011;18248;51.522;7.020;2023-09-08T03:34:00;10.02;;;6.88;;
31638;SDS011;18248;51.522;7.020;2023-09-08T03:36:58;10.43;;;6.50;;
31638;SDS011;18248;51.522;7.020;2023-09-08T03:39:57;12.55;;;6.53;;
31638;SDS011;18248;51.522;7.020;2023-09-08T03:42:55;12.52;;;6.88;;
31638;SDS011;18248;51.522;7.020;2023-09-08T03:45:54;14.45;;;7.18;;
31638;SDS011;18248;51.522;7.020;2023-09-08T03:48:54;10.85;;;6.68;;
31638;SDS011;18248;51.522;7.020;2023-09-08T03:51:58;12.45;;;6.35;;
31638;SDS011;18248;51.522;7.020;2023-09-08T03:54:56;9.02;;;6.38;;
31638;SDS011;18248;51.522;7.020;2023-09-08T03:57:55;14.70;;;7.53;;
31638;SDS011;18248;51.522;7.020;2023-09-08T04:00:54;14.75;;;8.25;;
31638;SDS011;18248;51.522;7.020;2023-09-08T04:03:52;11.32;;;7.47;;
31638;SDS011;18248;51.522;7.020;2023-09-08T04:06:51;12.52;;;7.40;;
31638;SDS011;18248;51.522;7.020;2023-09-08T04:09:49;10.93;;;8.02;;
31638;SDS011;18248;51.522;7.020;2023-09-08T04:12:48;13.75;;;9.52;;
31638;SDS011;18248;51.522;7.020;2023-09-08T04:15:46;11.90;;;7.43;;
31638;SDS011;18248;51.522;7.020;2023-09-08T04:18:45;16.40;;;7.50;;
31638;SDS011;18248;51.522;7.020;2023-09-08T04:21:43;12.35;;;8.82;;
31638;SDS011;18248;51.522;7.020;2023-09-08T04:24:42;17.15;;;7.40;;
31638;SDS011;18248;51.522;7.020;2023-09-08T04:27:41;11.13;;;6.63;;
31638;SDS011;18248;51.522;7.020;2023-09-08T04:30:39;16.00;;;8.27;;
31638;SDS011;18248;51.522;7.020;2023-09-08T04:33:39;13.85;;;8.57;;
31638;SDS011;18248;51.522;7.020;2023-09-08T04:36:37;11.90;;;6.90;;
31638;SDS011;18248;51.522;7.020;2023-09-08T04:39:36;15.38;;;7.82;;
31638;SDS011;18248;51.522;7.020;2023-09-08T04:42:35;12.85;;;8.45;;
31638;SDS011;18248;51.522;7.020;2023-09-08T04:45:34;8.57;;;6.95;;
31638;SDS011;18248;51.522;7.020;2023-09-08T04:48:32;14.27;;;8.68;;
31638;SDS011;18248;51.522;7.020;2023-09-08T04:51:31;11.13;;;6.35;;
31638;SDS011;18248;51.522;7.020;2023-09-08T04:54:29;12.20;;;6.88;;
31638;SDS011;18248;51.522;7.020;2023-09-08T04:57:29;9.75;;;6.32;;
31638;SDS011;18248;51.522;7.020;2023-09-08T05:00:28;17.80;;;7.63;;
31638;SDS011;18248;51.522;7.020;2023-09-08T05:03:26;11.48;;;7.10;;
31638;SDS011;18248;51.522;7.020;2023-09-08T05:06:25;10.77;;;7.15;;
31638;SDS011;18248;51.522;7.020;2023-09-08T05:09:23;9.50;;;6.40;;
31638;SDS011;18248;51.522;7.020;2023-09-08T05:12:22;9.55;;;6.13;;
31638;SDS011;18248;51.522;7.020;2023-09-08T05:15:21;9.25;;;6.15;;
31638;SDS011;18248;51.522;7.020;2023-09-08T05:18:19;14.68;;;8.57;;
31638;SDS011;18248;51.522;7.020;2023-09-08T05:21:18;14.10;;;7.13;;
31638;SDS011;18248;51.522;7.020;2023-09-08T05:24:18;17.90;;;8.25;;
31638;SDS011;18248;51.522;7.020;2023-09-08T05:27:16;13.95;;;6.97;;
31638;SDS011;18248;51.522;7.020;2023-09-08T05:30:15;8.80;;;6.35;;
31638;SDS011;18248;51.522;7.020;2023-09-08T05:33:13;16.70;;;6.95;;
31638;SDS011;18248;51.522;7.020;2023-09-08T05:36:12;10.32;;;6.85;;
31638;SDS011;18248;51.522;7.020;2023-09-08T05:39:10;11.70;;;6.20;;
31638;SDS011;18248;51.522;7.020;2023-09-08T05:42:11;12.43;;;7.07;;
31638;SDS011;18248;51.522;7.020;2023-09-08T05:45:10;14.15;;;9.18;;
31638;SDS011;18248;51.522;7.020;2023-09-08T05:48:08;15.25;;;8.10;;
31638;SDS011;18248;51.522;7.020;2023-09-08T05:51:07;11.95;;;8.18;;
31638;SDS011;18248;51.522;7.020;2023-09-08T05:54:05;15.35;;;8.90;;
31638;SDS011;18248;51.522;7.020;2023-09-08T05:57:05;13.68;;;7.78;;
31638;SDS011;18248;51.522;7.020;2023-09-08T06:00:04;22.55;;;11.70;;
31638;SDS011;18248;51.522;7.020;2023-09-08T06:03:03;21.48;;;10.68;;
31638;SDS011;18248;51.522;7.020;2023-09-08T06:06:03;11.55;;;7.38;;
31638;SDS011;18248;51.522;7.020;2023-09-08T06:09:01;20.08;;;10.00;;
31638;SDS011;18248;51.522;7.020;2023-09-08T06:12:01;13.00;;;8.52;;
31638;SDS011;18248;51.522;7.020;2023-09-08T06:14:59;12.63;;;8.35;;
31638;SDS011;18248;51.522;7.020;2023-09-08T06:17:59;12.50;;;7.22;;
31638;SDS011;18248;51.522;7.020;2023-09-08T06:20:59;18.20;;;8.70;;
31638;SDS011;18248;51.522;7.020;2023-09-08T06:23:57;17.23;;;8.52;;
31638;SDS011;18248;51.522;7.020;2023-09-08T06:26:56;13.90;;;8.20;;
31638;SDS011;18248;51.522;7.020;2023-09-08T06:29:54;17.95;;;10.68;;
31638;SDS011;18248;51.522;7.020;2023-09-08T06:32:53;25.45;;;11.15;;
31638;SDS011;18248;51.522;7.020;2023-09-08T06:35:52;18.70;;;10.18;;
31638;SDS011;18248;51.522;7.020;2023-09-08T06:38:51;15.23;;;10.10;;
31638;SDS011;18248;51.522;7.020;2023-09-08T06:41:50;23.73;;;10.98;;
31638;SDS011;18248;51.522;7.020;2023-09-08T06:44:48;25.88;;;10.30;;
31638;SDS011;18248;51.522;7.020;2023-09-08T06:47:47;23.23;;;11.30;;
31638;SDS011;18248;51.522;7.020;2023-09-08T06:50:48;17.77;;;10.10;;
31638;SDS011;18248;51.522;7.020;2023-09-08T06:53:53;26.08;;;10.20;;
31638;SDS011;18248;51.522;7.020;2023-09-08T06:56:55;18.50;;;10.32;;
31638;SDS011;18248;51.522;7.020;2023-09-08T06:59:53;19.40;;;10.75;;
31638;SDS011;18248;51.522;7.020;2023-09-08T07:02:52;25.67;;;10.57;;
31638;SDS011;18248;51.522;7.020;2023-09-08T07:05:50;18.23;;;10.00;;
31638;SDS011;18248;51.522;7.020;2023-09-08T07:08:49;19.85;;;9.32;;
31638;SDS011;18248;51.522;7.020;2023-09-08T07:11:51;21.23;;;10.05;;
31638;SDS011;18248;51.522;7.020;2023-09-08T07:14:50;15.65;;;8.98;;
31638;SDS011;18248;51.522;7.020;2023-09-08T07:17:48;17.42;;;8.88;;
31638;SDS011;18248;51.522;7.020;2023-09-08T07:20:47;17.70;;;9.07;;
31638;SDS011;18248;51.522;7.020;2023-09-08T07:23:49;14.90;;;8.05;;
31638;SDS011;18248;51.522;7.020;2023-09-08T07:26:47;19.20;;;8.27;;
31638;SDS011;18248;51.522;7.020;2023-09-08T07:29:47;13.70;;;7.53;;
31638;SDS011;18248;51.522;7.020;2023-09-08T07:32:47;17.60;;;8.23;;
31638;SDS011;18248;51.522;7.020;2023-09-08T07:35:46;13.30;;;6.95;;
31638;SDS011;18248;51.522;7.020;2023-09-08T07:38:45;11.65;;;6.68;;
31638;SDS011;18248;51.522;7.020;2023-09-08T07:41:46;12.30;;;6.88;;
31638;SDS011;18248;51.522;7.020;2023-09-08T07:44:48;15.93;;;7.57;;
31638;SDS011;18248;51.522;7.020;2023-09-08T07:47:46;14.35;;;6.82;;
31638;SDS011;18248;51.522;7.020;2023-09-08T07:50:46;16.63;;;6.60;;
31638;SDS011;18248;51.522;7.020;2023-09-08T07:53:45;21.65;;;7.53;;
31638;SDS011;18248;51.522;7.020;2023-09-08T07:56:43;11.25;;;6.10;;
31638;SDS011;18248;51.522;7.020;2023-09-08T07:59:42;12.50;;;6.57;;
31638;SDS011;18248;51.522;7.020;2023-09-08T08:02:51;13.40;;;6.30;;
31638;SDS011;18248;51.522;7.020;2023-09-08T08:05:52;8.05;;;5.00;;
31638;SDS011;18248;51.522;7.020;2023-09-08T08:08:51;11.30;;;5.57;;
31638;SDS011;18248;51.522;7.020;2023-09-08T08:11:49;11.70;;;5.43;;
31638;SDS011;18248;51.522;7.020;2023-09-08T08:14:48;13.80;;;5.43;;
31638;SDS011;18248;51.522;7.020;2023-09-08T08:17:47;10.70;;;5.63;;
31638;SDS011;18248;51.522;7.020;2023-09-08T08:20:45;8.50;;;4.65;;
31638;SDS011;18248;51.522;7.020;2023-09-08T08:23:44;14.77;;;5.28;;
31638;SDS011;18248;51.522;7.020;2023-09-08T08:26:43;9.50;;;5.60;;
31638;SDS011;18248;51.522;7.020;2023-09-08T08:29:42;10.48;;;5.57;;
31638;SDS011;18248;51.522;7.020;2023-09-08T08:32:41;6.78;;;4.43;;
31638;SDS011;18248;51.522;7.020;2023-09-08T08:35:39;12.77;;;5.35;;
31638;SDS011;18248;51.522;7.020;2023-09-08T08:38:38;8.32;;;4.70;;
31638;SDS011;18248;51.522;7.020;2023-09-08T08:41:36;7.57;;;4.90;;
31638;SDS011;18248;51.522;7.020;2023-09-08T08:44:38;10.15;;;4.93;;
31638;SDS011;18248;51.522;7.020;2023-09-08T08:47:37;11.95;;;4.55;;
31638;SDS011;18248;51.522;7.020;2023-09-08T08:50:37;5.38;;;4.10;;
31638;SDS011;18248;51.522;7.020;2023-09-08T08:53:36;6.63;;;4.28;;
31638;SDS011;18248;51.522;7.020;2023-09-08T08:56:39;7.43;;;3.50;;
31638;SDS011;18248;51.522;7.020;2023-09-08T08:59:39;7.40;;;4.20;;
31638;SDS011;18248;51.522;7.020;2023-09-08T09:02:39;8.02;;;4.05;;
31638;SDS011;18248;51.522;7.020;2023-09-08T09:05:39;9.45;;;4.30;;
31638;SDS011;18248;51.522;7.020;2023-09-08T09:08:40;11.20;;;4.55;;
31638;SDS011;18248;51.522;7.020;2023-09-08T09:11:41;9.55;;;4.03;;
31638;SDS011;18248;51.522;7.020;2023-09-08T09:14:44;8.32;;;4.00;;
31638;SDS011;18248;51.522;7.020;2023-09-08T09:17:44;6.15;;;3.72;;
31638;SDS011;18248;51.522;7.020;2023-09-08T09:21:01;9.88;;;4.60;;
31638;SDS011;18248;51.522;7.020;2023-09-08T09:24:00;7.03;;;4.20;;
31638;SDS011;18248;51.522;7.020;2023-09-08T09:26:59;8.30;;;3.92;;
31638;SDS011;18248;51.522;7.020;2023-09-08T09:29:59;8.13;;;3.72;;
31638;SDS011;18248;51.522;7.020;2023-09-08T09:33:04;6.25;;;3.65;;
31638;SDS011;18248;51.522;7.020;2023-09-08T09:36:03;8.77;;;4.05;;
31638;SDS011;18248;51.522;7.020;2023-09-08T09:39:01;9.73;;;3.90;;
31638;SDS011;18248;51.522;7.020;2023-09-08T09:42:01;10.35;;;3.88;;
31638;SDS011;18248;51.522;7.020;2023-09-08T09:45:02;5.78;;;3.65;;
31638;SDS011;18248;51.522;7.020;2023-09-08T09:48:02;5.72;;;3.60;;
31638;SDS011;18248;51.522;7.020;2023-09-08T09:51:14;6.18;;;4.03;;
31638;SDS011;18248;51.522;7.020;2023-09-08T09:54:17;6.28;;;3.80;;
31638;SDS011;18248;51.522;7.020;2023-09-08T09:57:17;8.43;;;3.65;;
31638;SDS011;18248;51.522;7.020;2023-09-08T10:00:18;12.07;;;3.28;;
31638;SDS011;18248;51.522;7.020;2023-09-08T10:03:17;6.03;;;3.85;;
31638;SDS011;18248;51.522;7.020;2023-09-08T10:06:17;5.88;;;3.38;;
31638;SDS011;18248;51.522;7.020;2023-09-08T10:09:18;4.70;;;3.20;;
31638;SDS011;18248;51.522;7.020;2023-09-08T10:12:17;5.63;;;3.10;;
31638;SDS011;18248;51.522;7.020;2023-09-08T10:15:18;9.27;;;3.90;;
31638;SDS011;18248;51.522;7.020;2023-09-08T10:18:20;8.65;;;3.25;;
31638;SDS011;18248;51.522;7.020;2023-09-08T10:21:19;4.88;;;3.38;;
31638;SDS011;18248;51.522;7.020;2023-09-08T10:24:22;7.60;;;3.40;;
31638;SDS011;18248;51.522;7.020;2023-09-08T10:27:22;5.25;;;3.58;;
31638;SDS011;18248;51.522;7.020;2023-09-08T10:30:21;7.75;;;3.50;;
31638;SDS011;18248;51.522;7.020;2023-09-08T10:33:21;5.72;;;3.78;;
31638;SDS011;18248;51.522;7.020;2023-09-08T10:36:23;6.50;;;3.30;;
31638;SDS011;18248;51.522;7.020;2023-09-08T10:39:35;5.95;;;3.42;;
31638;SDS011;18248;51.522;7.020;2023-09-08T10:42:37;6.50;;;3.38;;
31638;SDS011;18248;51.522;7.020;2023-09-08T10:45:39;10.05;;;4.28;;
31638;SDS011;18248;51.522;7.020;2023-09-08T10:48:42;8.07;;;3.50;;
31638;SDS011;18248;51.522;7.020;2023-09-08T10:51:41;7.18;;;3.60;;
31638;SDS011;18248;51.522;7.020;2023-09-08T10:54:40;6.07;;;3.50;;
31638;SDS011;18248;51.522;7.020;2023-09-08T10:57:45;6.32;;;3.40;;
31638;SDS011;18248;51.522;7.020;2023-09-08T11:00:45;7.00;;;3.50;;
31638;SDS011;18248;51.522;7.020;2023-09-08T11:03:47;8.65;;;3.00;;
31638;SDS011;18248;51.522;7.020;2023-09-08T11:06:48;6.00;;;3.55;;
31638;SDS011;18248;51.522;7.020;2023-09-08T11:09:47;7.18;;;3.17;;
31638;SDS011;18248;51.522;7.020;2023-09-08T11:12:45;8.18;;;3.15;;
31638;SDS011;18248;51.522;7.020;2023-09-08T11:15:46;3.88;;;3.00;;
31638;SDS011;18248;51.522;7.020;2023-09-08T11:18:44;6.45;;;3.10;;
31638;SDS011;18248;51.522;7.020;2023-09-08T11:21:43;5.43;;;3.00;;
31638;SDS011;18248;51.522;7.020;2023-09-08T11:24:42;6.88;;;2.72;;
31638;SDS011;18248;51.522;7.020;2023-09-08T11:27:41;6.22;;;3.65;;
31638;SDS011;18248;51.522;7.020;2023-09-08T11:30:40;6.28;;;3.13;;
31638;SDS011;18248;51.522;7.020;2023-09-08T11:33:39;6.60;;;2.88;;
31638;SDS011;18248;51.522;7.020;2023-09-08T11:36:38;6.00;;;2.90;;
31638;SDS011;18248;51.522;7.020;2023-09-08T11:39:37;3.78;;;3.10;;
31638;SDS011;18248;51.522;7.020;2023-09-08T11:42:36;8.48;;;2.78;;
31638;SDS011;18248;51.522;7.020;2023-09-08T11:45:41;5.72;;;3.33;;
31638;SDS011;18248;51.522;7.020;2023-09-08T11:48:41;3.97;;;3.25;;
31638;SDS011;18248;51.522;7.020;2023-09-08T11:51:39;8.45;;;3.30;;
31638;SDS011;18248;51.522;7.020;2023-09-08T11:54:39;7.72;;;3.20;;
31638;SDS011;18248;51.522;7.020;2023-09-08T11:57:39;3.80;;;2.85;;
31638;SDS011;18248;51.522;7.020;2023-09-08T12:00:39;5.80;;;2.60;;
31638;SDS011;18248;51.522;7.020;2023-09-08T12:03:51;5.43;;;3.28;;
31638;SDS011;18248;51.522;7.020;2023-09-08T12:06:53;5.00;;;3.20;;
31638;SDS011;18248;51.522;7.020;2023-09-08T12:09:55;4.43;;;3.10;;
31638;SDS011;18248;51.522;7.020;2023-09-08T12:12:54;8.23;;;3.28;;
31638;SDS011;18248;51.522;7.020;2023-09-08T12:15:56;3.75;;;2.85;;
31638;SDS011;18248;51.522;7.020;2023-09-08T12:18:54;5.95;;;2.75;;
31638;SDS011;18248;51.522;7.020;2023-09-08T12:21:54;8.73;;;3.10;;
31638;SDS011;18248;51.522;7.020;2023-09-08T12:27:54;8.27;;;3.20;;
31638;SDS011;18248;51.522;7.020;2023-09-08T12:30:53;3.95;;;3.17;;
31638;SDS011;18248;51.522;7.020;2023-09-08T12:33:52;4.95;;;3.10;;
31638;SDS011;18248;51.522;7.020;2023-09-08T12:36:51;6.28;;;3.47;;
31638;SDS011;18248;51.522;7.020;2023-09-08T12:39:53;8.15;;;3.40;;
31638;SDS011;18248;51.522;7.020;2023-09-08T12:42:52;3.22;;;2.65;;
31638;SDS011;18248;51.522;7.020;2023-09-08T12:45:50;4.80;;;3.20;;
31638;SDS011;18248;51.522;7.020;2023-09-08T12:48:49;6.68;;;4.25;;
31638;SDS011;18248;51.522;7.020;2023-09-08T12:51:47;3.63;;;3.17;;
31638;SDS011;18248;51.522;7.020;2023-09-08T12:54:46;4.32;;;3.58;;
31638;SDS011;18248;51.522;7.020;2023-09-08T12:57:44;4.95;;;3.20;;
31638;SDS011;18248;51.522;7.020;2023-09-08T13:00:44;7.28;;;3.10;;
31638;SDS011;18248;51.522;7.020;2023-09-08T13:03:43;6.07;;;3.20;;
31638;SDS011;18248;51.522;7.020;2023-09-08T13:06:41;9.50;;;3.60;;
31638;SDS011;18248;51.522;7.020;2023-09-08T13:09:41;4.07;;;2.90;;
31638;SDS011;18248;51.522;7.020;2023-09-08T13:12:40;16.70;;;3.80;;
31638;SDS011;18248;51.522;7.020;2023-09-08T13:15:39;4.38;;;3.25;;
31638;SDS011;18248;51.522;7.020;2023-09-08T13:18:38;4.25;;;2.95;;
31638;SDS011;18248;51.522;7.020;2023-09-08T13:21:39;4.25;;;2.88;;
31638;SDS011;18248;51.522;7.020;2023-09-08T13:24:37;7.53;;;3.30;;
31638;SDS011;18248;51.522;7.020;2023-09-08T13:27:40;5.43;;;3.15;;
31638;SDS011;18248;51.522;7.020;2023-09-08T13:30:38;5.90;;;3.07;;
31638;SDS011;18248;51.522;7.020;2023-09-08T13:33:38;7.45;;;3.20;;
31638;SDS011;18248;51.522;7.020;2023-09-08T13:36:37;5.85;;;3.17;;
31638;SDS011;18248;51.522;7.020;2023-09-08T13:39:36;4.28;;;2.65;;
31638;SDS011;18248;51.522;7.020;2023-09-08T13:42:35;6.03;;;3.13;;
31638;SDS011;18248;51.522;7.020;2023-09-08T13:45:34;6.53;;;3.20;;
31638;SDS011;18248;51.522;7.020;2023-09-08T13:48:34;7.55;;;3.17;;
31638;SDS011;18248;51.522;7.020;2023-09-08T13:51:32;4.70;;;3.03;;
31638;SDS011;18248;51.522;7.020;2023-09-08T13:54:32;5.47;;;3.15;;
31638;SDS011;18248;51.522;7.020;2023-09-08T13:57:31;4.68;;;3.25;;
31638;SDS011;18248;51.522;7.020;2023-09-08T14:00:30;9.93;;;3.65;;
31638;SDS011;18248;51.522;7.020;2023-09-08T14:03:29;10.20;;;2.83;;
31638;SDS011;18248;51.522;7.020;2023-09-08T14:06:27;3.40;;;2.65;;
31638;SDS011;18248;51.522;7.020;2023-09-08T14:09:26;3.97;;;2.75;;
31638;SDS011;18248;51.522;7.020;2023-09-08T14:12:25;4.85;;;3.10;;
31638;SDS011;18248;51.522;7.020;2023-09-08T14:15:23;7.65;;;3.00;;
31638;SDS011;18248;51.522;7.020;2023-09-08T14:18:22;3.88;;;2.90;;
31638;SDS011;18248;51.522;7.020;2023-09-08T14:21:20;4.15;;;3.17;;
31638;SDS011;18248;51.522;7.020;2023-09-08T14:24:19;4.57;;;3.22;;
31638;SDS011;18248;51.522;7.020;2023-09-08T14:27:19;4.35;;;3.20;;
31638;SDS011;18248;51.522;7.020;2023-09-08T14:30:17;7.00;;;3.42;;
31638;SDS011;18248;51.522;7.020;2023-09-08T14:33:16;6.93;;;3.58;;
31638;SDS011;18248;51.522;7.020;2023-09-08T14:36:18;6.18;;;3.67;;
31638;SDS011;18248;51.522;7.020;2023-09-08T14:39:16;9.25;;;3.67;;
31638;SDS011;18248;51.522;7.020;2023-09-08T14:42:18;6.07;;;2.78;;
31638;SDS011;18248;51.522;7.020;2023-09-08T14:45:17;7.60;;;3.20;;
31638;SDS011;18248;51.522;7.020;2023-09-08T14:48:15;6.57;;;3.35;;
31638;SDS011;18248;51.522;7.020;2023-09-08T14:51:14;5.90;;;3.42;;
31638;SDS011;18248;51.522;7.020;2023-09-08T14:54:13;4.57;;;3.13;;
31638;SDS011;18248;51.522;7.020;2023-09-08T14:57:11;5.55;;;3.58;;
31638;SDS011;18248;51.522;7.020;2023-09-08T15:00:10;5.28;;;3.28;;
31638;SDS011;18248;51.522;7.020;2023-09-08T15:03:09;3.58;;;2.85;;
31638;SDS011;18248;51.522;7.020;2023-09-08T15:06:07;3.60;;;2.97;;
31638;SDS011;18248;51.522;7.020;2023-09-08T15:09:07;6.95;;;3.20;;
31638;SDS011;18248;51.522;7.020;2023-09-08T15:12:05;7.00;;;3.20;;
31638;SDS011;18248;51.522;7.020;2023-09-08T15:15:04;4.47;;;3.00;;
31638;SDS011;18248;51.522;7.020;2023-09-08T15:18:03;8.43;;;3.15;;
31638;SDS011;18248;51.522;7.020;2023-09-08T15:21:03;8.45;;;3.33;;
31638;SDS011;18248;51.522;7.020;2023-09-08T15:24:01;5.20;;;3.40;;
31638;SDS011;18248;51.522;7.020;2023-09-08T15:27:00;8.20;;;3.10;;
31638;SDS011;18248;51.522;7.020;2023-09-08T15:30:00;7.22;;;3.25;;
31638;SDS011;18248;51.522;7.020;2023-09-08T15:33:01;5.68;;;3.13;;
31638;SDS011;18248;51.522;7.020;2023-09-08T15:36:04;6.32;;;3.05;;
31638;SDS011;18248;51.522;7.020;2023-09-08T15:39:02;7.63;;;3.13;;
31638;SDS011;18248;51.522;7.020;2023-09-08T15:42:01;5.45;;;3.38;;
31638;SDS011;18248;51.522;7.020;2023-09-08T15:45:00;8.50;;;4.65;;
31638;SDS011;18248;51.522;7.020;2023-09-08T15:48:00;9.95;;;4.50;;
31638;SDS011;18248;51.522;7.020;2023-09-08T15:51:00;6.28;;;3.35;;
31638;SDS011;18248;51.522;7.020;2023-09-08T15:53:59;9.10;;;3.95;;
31638;SDS011;18248;51.522;7.020;2023-09-08T15:56:57;16.70;;;4.75;;
31638;SDS011;18248;51.522;7.020;2023-09-08T15:59:56;6.22;;;3.78;;
31638;SDS011;18248;51.522;7.020;2023-09-08T16:02:58;6.68;;;3.53;;
31638;SDS011;18248;51.522;7.020;2023-09-08T16:05:57;7.22;;;3.10;;
31638;SDS011;18248;51.522;7.020;2023-09-08T16:08:55;10.68;;;3.30;;
31638;SDS011;18248;51.522;7.020;2023-09-08T16:11:54;6.03;;;2.92;;
31638;SDS011;18248;51.522;7.020;2023-09-08T16:14:52;4.95;;;3.40;;
31638;SDS011;18248;51.522;7.020;2023-09-08T16:17:51;5.95;;;3.25;;
31638;SDS011;18248;51.522;7.020;2023-09-08T16:20:49;8.57;;;4.07;;
31638;SDS011;18248;51.522;7.020;2023-09-08T16:23:48;8.80;;;3.70;;
31638;SDS011;18248;51.522;7.020;2023-09-08T16:26:46;12.15;;;3.97;;
31638;SDS011;18248;51.522;7.020;2023-09-08T16:29:46;7.53;;;3.92;;
31638;SDS011;18248;51.522;7.020;2023-09-08T16:32:46;7.97;;;4.03;;
31638;SDS011;18248;51.522;7.020;2023-09-08T16:35:44;12.48;;;4.15;;
31638;SDS011;18248;51.522;7.020;2023-09-08T16:38:43;21.38;;;4.78;;
31638;SDS011;18248;51.522;7.020;2023-09-08T16:41:42;13.55;;;4.60;;
31638;SDS011;18248;51.522;7.020;2023-09-08T16:44:40;10.98;;;4.05;;
31638;SDS011;18248;51.522;7.020;2023-09-08T16:47:42;13.10;;;4.93;;
31638;SDS011;18248;51.522;7.020;2023-09-08T16:50:41;9.00;;;3.83;;
31638;SDS011;18248;51.522;7.020;2023-09-08T16:53:39;5.47;;;4.13;;
31638;SDS011;18248;51.522;7.020;2023-09-08T16:56:38;12.10;;;4.30;;
31638;SDS011;18248;51.522;7.020;2023-09-08T16:59:36;7.68;;;3.92;;
31638;SDS011;18248;51.522;7.020;2023-09-08T17:02:35;10.90;;;4.28;;
31638;SDS011;18248;51.522;7.020;2023-09-08T17:05:34;9.05;;;4.65;;
31638;SDS011;18248;51.522;7.020;2023-09-08T17:08:34;9.48;;;4.05;;
31638;SDS011;18248;51.522;7.020;2023-09-08T17:11:33;9.93;;;4.47;;
31638;SDS011;18248;51.522;7.020;2023-09-08T17:14:35;8.90;;;4.03;;
31638;SDS011;18248;51.522;7.020;2023-09-08T17:17:34;8.75;;;5.90;;
31638;SDS011;18248;51.522;7.020;2023-09-08T17:20:33;8.50;;;4.57;;
31638;SDS011;18248;51.522;7.020;2023-09-08T17:23:31;7.88;;;4.50;;
31638;SDS011;18248;51.522;7.020;2023-09-08T17:26:30;10.40;;;4.03;;
31638;SDS011;18248;51.522;7.020;2023-09-08T17:29:28;14.88;;;4.95;;
31638;SDS011;18248;51.522;7.020;2023-09-08T17:32:27;8.73;;;4.20;;
31638;SDS011;18248;51.522;7.020;2023-09-08T17:35:27;13.52;;;5.25;;
31638;SDS011;18248;51.522;7.020;2023-09-08T17:38:27;11.20;;;6.13;;
31638;SDS011;18248;51.522;7.020;2023-09-08T17:41:25;13.38;;;8.70;;
31638;SDS011;18248;51.522;7.020;2023-09-08T17:44:24;15.73;;;8.38;;
31638;SDS011;18248;51.522;7.020;2023-09-08T17:47:22;14.77;;;7.40;;
31638;SDS011;18248;51.522;7.020;2023-09-08T17:50:21;12.27;;;6.28;;
31638;SDS011;18248;51.522;7.020;2023-09-08T17:53:19;9.10;;;6.18;;
31638;SDS011;18248;51.522;7.020;2023-09-08T17:56:18;8.48;;;5.75;;
31638;SDS011;18248;51.522;7.020;2023-09-08T17:59:17;9.43;;;6.32;;